Main page
METAR-TAF:

METAR-TAF

Airports :

Pompano Beach Airpark

Pompano Beach, Florida, United States

latitude: 26-14-44N, longitude: 080-06-41W, elevation: 20 ft

Current weather observation

The report was made 36 minutes ago, at 20:53 UTC
Wind 14 mph from the East
Temperature 81°F
Humidity 74%
Pressure 30.16 in. Hg
Visibility: 10 miles
Clear sky

METAR: KPMP 272053Z 10012KT 10SM CLR 27/22 A3016 RMK AO2 SLP214 T02670217 56013

Time: 16:29 (21:29 UTC)


TAF: missing

Weather observations and forecasts of more than 4000 airports (METAR and TAF reports).

The available stations are represented by yellow and red dots on the map.

Hover mouse over dot to see the name of the station.

Then click to see weather observations and forecasts.

To change the map : click on the green buttons with a black cross to zoom in, on the green button with a dash to zoom out, or on the green arrows for adjacent maps.


METAR-TAF: